createdAt,value
2018-11-04T00:03:24.853Z,99.9
2018-11-04T00:08:27.354Z,99.9
2018-11-04T00:13:29.834Z,99.9
2018-11-04T00:18:32.256Z,99.9
2018-11-04T00:23:34.707Z,99.9
2018-11-04T00:28:37.149Z,99.9
2018-11-04T00:33:39.597Z,99.9
2018-11-04T00:38:42.068Z,99.9
2018-11-04T00:43:44.551Z,99.9
2018-11-04T00:48:46.982Z,99.9
2018-11-04T00:53:49.431Z,99.9
2018-11-04T00:58:51.908Z,99.9
2018-11-04T01:03:54.341Z,99.9
2018-11-04T01:08:56.864Z,99.9
2018-11-04T01:13:59.273Z,99.9
2018-11-04T01:19:01.729Z,99.9
2018-11-04T01:24:04.165Z,99.9
2018-11-04T01:29:06.659Z,99.9
2018-11-04T01:34:09.088Z,99.9
2018-11-04T01:39:11.551Z,99.9
2018-11-04T01:44:14.010Z,99.9
2018-11-04T01:49:16.468Z,99.9
2018-11-04T01:54:18.915Z,99.9
2018-11-04T01:59:21.412Z,99.9
2018-11-04T02:04:23.874Z,99.9
2018-11-04T02:09:26.310Z,99.9
2018-11-04T02:14:28.750Z,99.9
2018-11-04T02:19:31.312Z,99.9
2018-11-04T02:24:33.658Z,99.9
2018-11-04T02:29:36.112Z,99.9
2018-11-04T02:34:38.582Z,99.9
2018-11-04T02:39:41.063Z,99.9
2018-11-04T02:44:43.543Z,99.9
2018-11-04T02:49:45.961Z,99.9
2018-11-04T02:54:48.417Z,99.9
2018-11-04T02:59:50.866Z,99.9
2018-11-04T03:04:53.332Z,99.9
2018-11-04T03:09:55.740Z,99.9
2018-11-04T03:14:58.189Z,99.9
2018-11-04T03:20:00.686Z,99.9
2018-11-04T03:25:03.108Z,99.9
2018-11-04T03:30:05.565Z,99.9
2018-11-04T03:35:08.107Z,99.9
2018-11-04T03:40:10.532Z,99.9
2018-11-04T03:45:12.923Z,99.9
2018-11-04T03:50:15.404Z,99.9
2018-11-04T03:55:17.893Z,99.9
2018-11-04T04:00:20.298Z,99.9
2018-11-04T04:05:22.765Z,99.9
2018-11-04T04:10:25.227Z,99.9
2018-11-04T04:15:27.677Z,99.9
2018-11-04T04:20:30.134Z,99.9
2018-11-04T04:25:32.592Z,99.9
2018-11-04T04:30:35.047Z,99.9
2018-11-04T04:35:37.502Z,99.9
2018-11-04T04:40:39.976Z,99.9
2018-11-04T04:45:42.425Z,99.9
2018-11-04T04:50:44.885Z,99.9
2018-11-04T04:55:47.339Z,99.9
2018-11-04T05:00:49.803Z,99.9
2018-11-04T05:05:52.253Z,99.9
2018-11-04T05:10:54.800Z,99.9
2018-11-04T05:15:57.220Z,99.9
2018-11-04T05:20:59.690Z,99.9
2018-11-04T05:26:02.138Z,99.9
2018-11-04T05:31:04.561Z,99.9
2018-11-04T05:36:07.076Z,99.9
2018-11-04T05:41:09.468Z,99.9
2018-11-04T05:46:11.937Z,99.9
2018-11-04T05:51:14.372Z,99.9
2018-11-04T05:56:16.832Z,99.9
2018-11-04T06:01:19.277Z,99.9
2018-11-04T06:06:21.736Z,99.9
2018-11-04T06:11:24.200Z,99.9
2018-11-04T06:16:26.665Z,99.9
2018-11-04T06:21:29.111Z,99.9
2018-11-04T06:26:31.589Z,99.9
2018-11-04T06:31:34.069Z,99.9
2018-11-04T06:36:36.483Z,99.9
2018-11-04T06:41:38.963Z,99.9
2018-11-04T06:46:41.397Z,99.9
2018-11-04T06:51:43.855Z,99.9
2018-11-04T06:56:46.324Z,99.9
2018-11-04T07:01:48.769Z,99.9
2018-11-04T07:06:51.232Z,99.9
2018-11-04T07:11:53.722Z,99.9
2018-11-04T07:16:56.139Z,99.9
2018-11-04T07:21:58.655Z,99.9
2018-11-04T07:27:01.067Z,99.9
2018-11-04T07:32:03.646Z,99.9
2018-11-04T07:37:05.991Z,99.9
2018-11-04T07:42:08.441Z,99.9
2018-11-04T07:47:10.891Z,99.9
2018-11-04T07:52:13.348Z,99.9
2018-11-04T07:57:15.828Z,99.9
2018-11-04T08:02:18.276Z,99.9
2018-11-04T08:07:20.769Z,99.9
2018-11-04T08:12:23.250Z,99.9
2018-11-04T08:17:25.627Z,99.9
2018-11-04T08:22:28.117Z,99.9
2018-11-04T08:27:30.867Z,99.9
2018-11-04T08:32:33.015Z,99.9
2018-11-04T08:37:35.500Z,99.9
2018-11-04T08:42:37.929Z,99.9
2018-11-04T08:47:40.386Z,99.9
2018-11-04T08:52:42.907Z,99.9
2018-11-04T08:57:45.302Z,99.9
2018-11-04T09:02:47.757Z,99.9
2018-11-04T09:07:50.234Z,99.9
2018-11-04T09:12:52.667Z,99.9
2018-11-04T09:17:55.147Z,99.9
2018-11-04T09:22:57.596Z,99.9
2018-11-04T09:28:00.164Z,99.9
2018-11-04T09:33:02.509Z,99.9
2018-11-04T09:38:05.018Z,99.9
2018-11-04T09:43:07.484Z,99.9
2018-11-04T09:48:09.890Z,99.9
2018-11-04T09:53:12.378Z,99.9
2018-11-04T09:58:14.821Z,99.9
2018-11-04T10:03:17.294Z,99.9
2018-11-04T10:08:19.805Z,99.9
2018-11-04T10:13:22.237Z,99.9
2018-11-04T10:18:24.627Z,97.3
2018-11-04T10:23:27.087Z,72.4
2018-11-04T10:28:29.576Z,91.2
2018-11-04T10:33:31.995Z,99.9
2018-11-04T10:38:34.505Z,99.9
2018-11-04T10:43:36.910Z,99.9
2018-11-04T10:48:39.413Z,99.9
2018-11-04T10:53:41.843Z,99.9
2018-11-04T10:58:44.287Z,99.9
2018-11-04T11:03:46.836Z,99.9
2018-11-04T11:08:49.202Z,99.9
2018-11-04T11:13:51.656Z,99.9
2018-11-04T11:18:54.110Z,99.9
2018-11-04T11:23:56.591Z,99.9
2018-11-04T11:28:59.037Z,98.2
2018-11-04T11:34:01.498Z,96.4
2018-11-04T11:39:03.995Z,99.9
2018-11-04T11:44:06.420Z,99.9
2018-11-04T11:49:08.882Z,99.9
2018-11-04T11:54:11.321Z,99.9
2018-11-04T11:59:13.860Z,98.6
2018-11-04T12:04:16.236Z,78.4
2018-11-04T12:09:18.705Z,78
2018-11-04T12:14:21.184Z,69.7
2018-11-04T12:19:23.637Z,64.5
2018-11-04T12:24:26.096Z,69.2
2018-11-04T12:29:28.579Z,72.4
2018-11-04T12:34:31.000Z,79.1
2018-11-04T12:39:33.456Z,79.7
2018-11-04T12:44:35.895Z,72.7
2018-11-04T12:49:38.352Z,80.3
2018-11-04T12:54:40.846Z,99.9
2018-11-04T12:59:43.281Z,99.1
2018-11-04T13:04:45.807Z,95.3
2018-11-04T13:09:48.221Z,99.8
2018-11-04T13:14:50.645Z,99.9
2018-11-04T13:19:53.109Z,99.9
2018-11-04T13:24:55.573Z,99.9
2018-11-04T13:29:58.044Z,99.9
2018-11-04T13:35:00.485Z,99.9
2018-11-04T13:40:02.940Z,99.9
2018-11-04T13:45:05.394Z,99.9
2018-11-04T13:50:07.876Z,99.9
2018-11-04T13:55:10.323Z,99.9
2018-11-04T14:00:12.789Z,99.9
2018-11-04T14:05:15.212Z,99.9
2018-11-04T14:10:17.678Z,99.9
2018-11-04T14:15:20.164Z,99.9
2018-11-04T14:20:22.658Z,99.9
2018-11-04T14:25:25.086Z,99.9
2018-11-04T14:30:27.523Z,99.9
2018-11-04T14:35:29.994Z,99.9
2018-11-04T14:40:32.446Z,99.9
2018-11-04T14:45:34.941Z,99.9
2018-11-04T14:50:37.349Z,99.9
2018-11-04T14:55:39.801Z,99.9
2018-11-04T15:00:42.263Z,99.9
2018-11-04T15:05:44.895Z,99.9
2018-11-04T15:10:47.180Z,99.9
2018-11-04T15:15:49.633Z,99.9
2018-11-04T15:20:52.105Z,99.9
2018-11-04T15:25:54.569Z,99.9
2018-11-04T15:30:57.082Z,99.9
2018-11-04T15:35:59.476Z,99.9
2018-11-04T15:41:01.960Z,99.9
2018-11-04T15:46:04.417Z,99.9
2018-11-04T15:51:06.886Z,99.9
2018-11-04T15:56:09.301Z,99.9
2018-11-04T16:01:11.773Z,99.9
2018-11-04T16:06:14.221Z,99.9
2018-11-04T16:11:16.924Z,99.9
2018-11-04T16:16:19.226Z,99.9
2018-11-04T16:21:21.623Z,99.9
2018-11-04T16:26:24.043Z,99.9
2018-11-04T16:31:26.498Z,99.9
2018-11-04T16:36:28.949Z,99.9
2018-11-04T16:41:31.419Z,99.9
2018-11-04T16:46:33.876Z,99.9
2018-11-04T16:51:36.348Z,99.9
2018-11-04T16:56:38.797Z,99.9
2018-11-04T17:01:41.266Z,99.9
2018-11-04T17:06:43.771Z,99.9
2018-11-04T17:11:46.160Z,99.9
2018-11-04T17:16:48.670Z,99.9
2018-11-04T17:21:51.077Z,99.9
2018-11-04T17:26:53.532Z,99.9
2018-11-04T17:31:55.997Z,99.9
2018-11-04T17:36:58.447Z,99.9
2018-11-04T17:42:00.922Z,99.9
2018-11-04T17:47:03.385Z,99.9
2018-11-04T17:52:05.830Z,99.9
2018-11-04T17:57:08.292Z,99.9
2018-11-04T18:02:10.747Z,99.9
2018-11-04T18:07:13.282Z,99.9
2018-11-04T18:12:15.648Z,99.9
2018-11-04T18:17:18.106Z,99.9
2018-11-04T18:22:20.661Z,99.9
2018-11-04T18:27:23.045Z,99.9
2018-11-04T18:32:25.863Z,99.9
2018-11-04T18:37:27.936Z,99.9
2018-11-04T18:42:30.428Z,99.9
2018-11-04T18:47:32.864Z,99.9
2018-11-04T18:52:35.504Z,99.9
2018-11-04T18:57:37.858Z,99.9
2018-11-04T19:02:40.250Z,99.9
2018-11-04T19:07:42.699Z,99.9
2018-11-04T19:12:45.144Z,99.9
2018-11-04T19:17:47.656Z,99.9
2018-11-04T19:22:50.070Z,99.9
2018-11-04T19:27:52.532Z,99.9
2018-11-04T19:32:54.986Z,99.9
2018-11-04T19:37:57.456Z,99.9
2018-11-04T19:42:59.947Z,99.9
2018-11-04T19:48:02.435Z,99.9
2018-11-04T19:53:04.799Z,99.9
2018-11-04T19:58:07.271Z,99.9
2018-11-04T20:03:09.731Z,99.9
2018-11-04T20:08:12.278Z,99.9
2018-11-04T20:13:14.728Z,99.9
2018-11-04T20:18:17.228Z,99.9
